sensor_id;sensor_type;location;lat;lon;timestamp;P1;durP1;ratioP1;P2;durP2;ratioP2
76121;SDS011;70471;53.200;6.080;2023-09-12T00:04:42;8.30;;;4.70;;
76121;SDS011;70471;53.200;6.080;2023-09-12T00:09:34;6.05;;;4.78;;
76121;SDS011;70471;53.200;6.080;2023-09-12T00:14:27;7.85;;;4.68;;
76121;SDS011;70471;53.200;6.080;2023-09-12T00:19:18;9.43;;;5.65;;
76121;SDS011;70471;53.200;6.080;2023-09-12T00:24:10;11.48;;;6.88;;
76121;SDS011;70471;53.200;6.080;2023-09-12T00:29:01;7.57;;;5.72;;
76121;SDS011;70471;53.200;6.080;2023-09-12T00:33:54;9.23;;;6.15;;
76121;SDS011;70471;53.200;6.080;2023-09-12T00:38:45;8.50;;;5.97;;
76121;SDS011;70471;53.200;6.080;2023-09-12T00:43:37;10.02;;;6.53;;
76121;SDS011;70471;53.200;6.080;2023-09-12T00:48:28;10.52;;;6.65;;
76121;SDS011;70471;53.200;6.080;2023-09-12T00:53:22;9.90;;;5.70;;
76121;SDS011;70471;53.200;6.080;2023-09-12T00:58:13;9.63;;;5.55;;
76121;SDS011;70471;53.200;6.080;2023-09-12T01:03:05;9.80;;;6.03;;
76121;SDS011;70471;53.200;6.080;2023-09-12T01:07:57;8.90;;;5.60;;
76121;SDS011;70471;53.200;6.080;2023-09-12T01:12:51;7.30;;;5.53;;
76121;SDS011;70471;53.200;6.080;2023-09-12T01:17:45;13.27;;;7.50;;
76121;SDS011;70471;53.200;6.080;2023-09-12T01:22:40;12.15;;;8.10;;
76121;SDS011;70471;53.200;6.080;2023-09-12T01:27:45;11.50;;;6.90;;
76121;SDS011;70471;53.200;6.080;2023-09-12T01:32:38;10.77;;;6.93;;
76121;SDS011;70471;53.200;6.080;2023-09-12T01:37:30;11.18;;;6.78;;
76121;SDS011;70471;53.200;6.080;2023-09-12T01:42:22;11.15;;;7.20;;
76121;SDS011;70471;53.200;6.080;2023-09-12T01:47:16;10.00;;;5.70;;
76121;SDS011;70471;53.200;6.080;2023-09-12T01:52:10;8.93;;;6.10;;
76121;SDS011;70471;53.200;6.080;2023-09-12T01:57:03;6.22;;;5.07;;
76121;SDS011;70471;53.200;6.080;2023-09-12T02:01:55;6.93;;;4.20;;
76121;SDS011;70471;53.200;6.080;2023-09-12T02:06:48;6.88;;;4.80;;
76121;SDS011;70471;53.200;6.080;2023-09-12T02:11:39;8.68;;;4.78;;
76121;SDS011;70471;53.200;6.080;2023-09-12T02:16:31;9.27;;;5.10;;
76121;SDS011;70471;53.200;6.080;2023-09-12T02:21:22;7.35;;;4.80;;
76121;SDS011;70471;53.200;6.080;2023-09-12T02:26:15;4.90;;;3.42;;
76121;SDS011;70471;53.200;6.080;2023-09-12T02:31:09;4.25;;;3.50;;
76121;SDS011;70471;53.200;6.080;2023-09-12T02:36:01;8.25;;;4.78;;
76121;SDS011;70471;53.200;6.080;2023-09-12T02:40:53;7.75;;;5.20;;
76121;SDS011;70471;53.200;6.080;2023-09-12T02:45:47;5.60;;;3.95;;
76121;SDS011;70471;53.200;6.080;2023-09-12T02:50:38;5.60;;;4.07;;
76121;SDS011;70471;53.200;6.080;2023-09-12T02:55:30;4.75;;;3.88;;
76121;SDS011;70471;53.200;6.080;2023-09-12T03:00:22;5.85;;;3.95;;
76121;SDS011;70471;53.200;6.080;2023-09-12T03:05:14;5.90;;;3.92;;
76121;SDS011;70471;53.200;6.080;2023-09-12T03:10:06;6.53;;;4.22;;
76121;SDS011;70471;53.200;6.080;2023-09-12T03:14:58;5.90;;;4.25;;
76121;SDS011;70471;53.200;6.080;2023-09-12T03:19:50;6.13;;;4.40;;
76121;SDS011;70471;53.200;6.080;2023-09-12T03:24:43;5.20;;;3.83;;
76121;SDS011;70471;53.200;6.080;2023-09-12T03:29:35;4.80;;;3.75;;
76121;SDS011;70471;53.200;6.080;2023-09-12T03:34:26;4.82;;;3.20;;
76121;SDS011;70471;53.200;6.080;2023-09-12T03:39:18;4.65;;;3.70;;
76121;SDS011;70471;53.200;6.080;2023-09-12T03:44:10;5.45;;;3.35;;
76121;SDS011;70471;53.200;6.080;2023-09-12T03:49:02;5.10;;;3.45;;
76121;SDS011;70471;53.200;6.080;2023-09-12T03:53:53;4.85;;;3.67;;
76121;SDS011;70471;53.200;6.080;2023-09-12T03:58:45;4.90;;;4.05;;
76121;SDS011;70471;53.200;6.080;2023-09-12T04:03:38;4.72;;;3.33;;
76121;SDS011;70471;53.200;6.080;2023-09-12T04:08:29;5.28;;;4.03;;
76121;SDS011;70471;53.200;6.080;2023-09-12T04:13:22;5.28;;;4.18;;
76121;SDS011;70471;53.200;6.080;2023-09-12T04:18:13;6.45;;;4.65;;
76121;SDS011;70471;53.200;6.080;2023-09-12T04:23:06;6.25;;;4.60;;
76121;SDS011;70471;53.200;6.080;2023-09-12T04:27:58;7.63;;;5.70;;
76121;SDS011;70471;53.200;6.080;2023-09-12T04:32:49;7.63;;;5.55;;
76121;SDS011;70471;53.200;6.080;2023-09-12T04:37:41;10.15;;;6.13;;
76121;SDS011;70471;53.200;6.080;2023-09-12T04:42:34;9.95;;;7.10;;
76121;SDS011;70471;53.200;6.080;2023-09-12T04:47:25;11.88;;;7.70;;
76121;SDS011;70471;53.200;6.080;2023-09-12T04:52:17;12.95;;;7.70;;
76121;SDS011;70471;53.200;6.080;2023-09-12T04:57:09;14.70;;;8.90;;
76121;SDS011;70471;53.200;6.080;2023-09-12T05:02:01;15.38;;;8.00;;
76121;SDS011;70471;53.200;6.080;2023-09-12T05:06:53;16.13;;;8.65;;
76121;SDS011;70471;53.200;6.080;2023-09-12T05:11:45;13.07;;;8.07;;
76121;SDS011;70471;53.200;6.080;2023-09-12T05:16:36;13.00;;;8.63;;
76121;SDS011;70471;53.200;6.080;2023-09-12T05:21:29;13.55;;;7.80;;
76121;SDS011;70471;53.200;6.080;2023-09-12T05:26:20;14.82;;;7.45;;
76121;SDS011;70471;53.200;6.080;2023-09-12T05:31:12;9.90;;;6.57;;
76121;SDS011;70471;53.200;6.080;2023-09-12T05:36:03;12.90;;;6.97;;
76121;SDS011;70471;53.200;6.080;2023-09-12T05:40:56;12.68;;;7.13;;
76121;SDS011;70471;53.200;6.080;2023-09-12T05:45:48;11.60;;;7.38;;
76121;SDS011;70471;53.200;6.080;2023-09-12T05:50:39;9.75;;;6.07;;
76121;SDS011;70471;53.200;6.080;2023-09-12T05:55:31;9.75;;;5.70;;
76121;SDS011;70471;53.200;6.080;2023-09-12T06:00:24;10.60;;;5.75;;
76121;SDS011;70471;53.200;6.080;2023-09-12T06:05:16;10.43;;;6.28;;
76121;SDS011;70471;53.200;6.080;2023-09-12T06:10:08;7.05;;;4.68;;
76121;SDS011;70471;53.200;6.080;2023-09-12T06:15:00;8.73;;;5.82;;
76121;SDS011;70471;53.200;6.080;2023-09-12T06:19:53;6.75;;;4.88;;
76121;SDS011;70471;53.200;6.080;2023-09-12T06:24:45;5.70;;;3.75;;
76121;SDS011;70471;53.200;6.080;2023-09-12T06:29:37;6.03;;;4.07;;
76121;SDS011;70471;53.200;6.080;2023-09-12T06:34:28;7.10;;;4.80;;
76121;SDS011;70471;53.200;6.080;2023-09-12T06:39:21;6.20;;;3.67;;
76121;SDS011;70471;53.200;6.080;2023-09-12T06:44:14;4.80;;;3.55;;
76121;SDS011;70471;53.200;6.080;2023-09-12T06:49:05;5.35;;;3.90;;
76121;SDS011;70471;53.200;6.080;2023-09-12T06:53:57;4.57;;;3.25;;
76121;SDS011;70471;53.200;6.080;2023-09-12T06:58:50;5.00;;;3.60;;
76121;SDS011;70471;53.200;6.080;2023-09-12T07:03:43;5.90;;;3.22;;
76121;SDS011;70471;53.200;6.080;2023-09-12T07:08:34;4.43;;;3.33;;
76121;SDS011;70471;53.200;6.080;2023-09-12T07:13:26;4.70;;;3.65;;
76121;SDS011;70471;53.200;6.080;2023-09-12T07:18:19;4.78;;;3.30;;
76121;SDS011;70471;53.200;6.080;2023-09-12T07:23:11;5.13;;;3.38;;
76121;SDS011;70471;53.200;6.080;2023-09-12T07:28:02;4.47;;;3.30;;
76121;SDS011;70471;53.200;6.080;2023-09-12T07:32:54;5.28;;;3.30;;
76121;SDS011;70471;53.200;6.080;2023-09-12T07:37:47;6.40;;;3.15;;
76121;SDS011;70471;53.200;6.080;2023-09-12T07:42:38;4.60;;;3.20;;
76121;SDS011;70471;53.200;6.080;2023-09-12T07:47:30;4.07;;;2.90;;
76121;SDS011;70471;53.200;6.080;2023-09-12T07:52:22;4.80;;;3.05;;
76121;SDS011;70471;53.200;6.080;2023-09-12T07:57:15;5.30;;;3.25;;
76121;SDS011;70471;53.200;6.080;2023-09-12T08:02:07;3.53;;;2.75;;
76121;SDS011;70471;53.200;6.080;2023-09-12T08:06:58;4.63;;;2.95;;
76121;SDS011;70471;53.200;6.080;2023-09-12T08:11:50;4.55;;;3.10;;
76121;SDS011;70471;53.200;6.080;2023-09-12T08:16:43;4.80;;;3.40;;
76121;SDS011;70471;53.200;6.080;2023-09-12T08:21:35;5.50;;;2.97;;
76121;SDS011;70471;53.200;6.080;2023-09-12T08:26:26;4.40;;;2.95;;
76121;SDS011;70471;53.200;6.080;2023-09-12T08:31:17;4.43;;;3.30;;
76121;SDS011;70471;53.200;6.080;2023-09-12T08:36:10;4.07;;;3.13;;
76121;SDS011;70471;53.200;6.080;2023-09-12T08:41:02;5.15;;;3.25;;
76121;SDS011;70471;53.200;6.080;2023-09-12T08:45:53;4.93;;;3.17;;
76121;SDS011;70471;53.200;6.080;2023-09-12T08:50:45;4.75;;;3.10;;
76121;SDS011;70471;53.200;6.080;2023-09-12T08:55:40;4.97;;;3.28;;
76121;SDS011;70471;53.200;6.080;2023-09-12T09:00:32;5.68;;;3.38;;
76121;SDS011;70471;53.200;6.080;2023-09-12T09:05:25;4.40;;;3.40;;
76121;SDS011;70471;53.200;6.080;2023-09-12T09:10:19;6.10;;;3.90;;
76121;SDS011;70471;53.200;6.080;2023-09-12T09:15:27;6.57;;;3.75;;
76121;SDS011;70471;53.200;6.080;2023-09-12T09:20:23;4.95;;;3.63;;
76121;SDS011;70471;53.200;6.080;2023-09-12T09:25:17;6.85;;;3.75;;
76121;SDS011;70471;53.200;6.080;2023-09-12T09:30:10;5.47;;;3.50;;
76121;SDS011;70471;53.200;6.080;2023-09-12T09:35:04;5.05;;;2.92;;
76121;SDS011;70471;53.200;6.080;2023-09-12T09:39:57;4.68;;;3.05;;
76121;SDS011;70471;53.200;6.080;2023-09-12T09:44:49;3.83;;;2.90;;
76121;SDS011;70471;53.200;6.080;2023-09-12T09:49:41;4.63;;;2.83;;
76121;SDS011;70471;53.200;6.080;2023-09-12T09:54:38;4.15;;;2.80;;
76121;SDS011;70471;53.200;6.080;2023-09-12T09:59:34;3.50;;;2.97;;
76121;SDS011;70471;53.200;6.080;2023-09-12T10:04:26;3.70;;;2.45;;
76121;SDS011;70471;53.200;6.080;2023-09-12T10:09:19;3.75;;;2.55;;
76121;SDS011;70471;53.200;6.080;2023-09-12T10:14:16;3.50;;;2.83;;
76121;SDS011;70471;53.200;6.080;2023-09-12T10:19:10;3.15;;;2.40;;
76121;SDS011;70471;53.200;6.080;2023-09-12T10:24:06;3.05;;;2.60;;
76121;SDS011;70471;53.200;6.080;2023-09-12T10:28:59;2.85;;;2.30;;
76121;SDS011;70471;53.200;6.080;2023-09-12T10:34:00;3.95;;;2.92;;
76121;SDS011;70471;53.200;6.080;2023-09-12T10:38:54;3.58;;;2.45;;
76121;SDS011;70471;53.200;6.080;2023-09-12T10:43:46;5.13;;;2.80;;
76121;SDS011;70471;53.200;6.080;2023-09-12T10:48:42;3.42;;;2.55;;
76121;SDS011;70471;53.200;6.080;2023-09-12T10:53:35;3.92;;;2.63;;
76121;SDS011;70471;53.200;6.080;2023-09-12T10:58:27;4.13;;;2.40;;
76121;SDS011;70471;53.200;6.080;2023-09-12T11:03:37;3.25;;;2.10;;
76121;SDS011;70471;53.200;6.080;2023-09-12T11:08:30;2.92;;;2.22;;
76121;SDS011;70471;53.200;6.080;2023-09-12T11:13:29;2.80;;;2.30;;
76121;SDS011;70471;53.200;6.080;2023-09-12T11:18:30;3.17;;;2.55;;
76121;SDS011;70471;53.200;6.080;2023-09-12T11:23:22;3.45;;;2.70;;
76121;SDS011;70471;53.200;6.080;2023-09-12T11:28:15;3.78;;;2.92;;
76121;SDS011;70471;53.200;6.080;2023-09-12T11:33:08;4.72;;;2.45;;
76121;SDS011;70471;53.200;6.080;2023-09-12T11:38:01;3.40;;;2.20;;
76121;SDS011;70471;53.200;6.080;2023-09-12T11:42:53;4.25;;;2.90;;
76121;SDS011;70471;53.200;6.080;2023-09-12T11:47:46;4.55;;;2.72;;
76121;SDS011;70471;53.200;6.080;2023-09-12T11:52:38;3.65;;;2.00;;
76121;SDS011;70471;53.200;6.080;2023-09-12T11:57:29;4.25;;;2.20;;
76121;SDS011;70471;53.200;6.080;2023-09-12T12:02:22;4.10;;;2.85;;
76121;SDS011;70471;53.200;6.080;2023-09-12T12:07:15;3.33;;;2.60;;
76121;SDS011;70471;53.200;6.080;2023-09-12T12:12:11;3.15;;;2.10;;
76121;SDS011;70471;53.200;6.080;2023-09-12T12:17:05;5.05;;;2.78;;
76121;SDS011;70471;53.200;6.080;2023-09-12T12:21:58;4.88;;;3.08;;
76121;SDS011;70471;53.200;6.080;2023-09-12T12:26:51;8.27;;;4.13;;
76121;SDS011;70471;53.200;6.080;2023-09-12T12:31:43;7.97;;;5.07;;
76121;SDS011;70471;53.200;6.080;2023-09-12T12:36:40;8.63;;;5.00;;
76121;SDS011;70471;53.200;6.080;2023-09-12T12:41:32;8.27;;;4.78;;
76121;SDS011;70471;53.200;6.080;2023-09-12T12:46:27;6.28;;;3.53;;
76121;SDS011;70471;53.200;6.080;2023-09-12T12:51:20;4.03;;;3.35;;
76121;SDS011;70471;53.200;6.080;2023-09-12T12:56:13;3.70;;;2.72;;
76121;SDS011;70471;53.200;6.080;2023-09-12T13:01:06;5.68;;;4.00;;
76121;SDS011;70471;53.200;6.080;2023-09-12T13:05:59;3.63;;;2.65;;
76121;SDS011;70471;53.200;6.080;2023-09-12T13:10:50;4.07;;;2.22;;
76121;SDS011;70471;53.200;6.080;2023-09-12T13:15:42;3.10;;;2.22;;
76121;SDS011;70471;53.200;6.080;2023-09-12T13:20:34;3.17;;;2.45;;
76121;SDS011;70471;53.200;6.080;2023-09-12T13:25:26;5.75;;;2.85;;
76121;SDS011;70471;53.200;6.080;2023-09-12T13:30:18;5.85;;;2.80;;
76121;SDS011;70471;53.200;6.080;2023-09-12T13:35:09;3.55;;;2.05;;
76121;SDS011;70471;53.200;6.080;2023-09-12T13:40:01;4.25;;;1.75;;
76121;SDS011;70471;53.200;6.080;2023-09-12T13:44:54;2.10;;;1.52;;
76121;SDS011;70471;53.200;6.080;2023-09-12T13:49:46;2.47;;;1.95;;
76121;SDS011;70471;53.200;6.080;2023-09-12T13:54:37;3.75;;;1.50;;
76121;SDS011;70471;53.200;6.080;2023-09-12T13:59:28;1.58;;;1.40;;
76121;SDS011;70471;53.200;6.080;2023-09-12T14:04:21;2.20;;;1.48;;
76121;SDS011;70471;53.200;6.080;2023-09-12T14:09:13;1.67;;;1.30;;
76121;SDS011;70471;53.200;6.080;2023-09-12T14:14:05;2.13;;;1.35;;
76121;SDS011;70471;53.200;6.080;2023-09-12T14:18:57;1.63;;;1.40;;
76121;SDS011;70471;53.200;6.080;2023-09-12T14:23:50;2.20;;;1.20;;
76121;SDS011;70471;53.200;6.080;2023-09-12T14:28:41;1.50;;;1.38;;
76121;SDS011;70471;53.200;6.080;2023-09-12T14:33:32;2.45;;;1.42;;
76121;SDS011;70471;53.200;6.080;2023-09-12T14:38:24;1.35;;;1.10;;
76121;SDS011;70471;53.200;6.080;2023-09-12T14:43:17;1.70;;;1.20;;
76121;SDS011;70471;53.200;6.080;2023-09-12T14:48:08;1.35;;;1.10;;
76121;SDS011;70471;53.200;6.080;2023-09-12T14:53:00;1.42;;;1.20;;
76121;SDS011;70471;53.200;6.080;2023-09-12T14:57:52;1.30;;;1.10;;
76121;SDS011;70471;53.200;6.080;2023-09-12T15:02:46;1.40;;;1.15;;
76121;SDS011;70471;53.200;6.080;2023-09-12T15:07:37;1.50;;;1.35;;
76121;SDS011;70471;53.200;6.080;2023-09-12T15:12:29;1.23;;;0.95;;
76121;SDS011;70471;53.200;6.080;2023-09-12T15:17:20;1.42;;;1.23;;
76121;SDS011;70471;53.200;6.080;2023-09-12T15:22:13;1.50;;;1.08;;
76121;SDS011;70471;53.200;6.080;2023-09-12T15:27:04;1.60;;;1.10;;
76121;SDS011;70471;53.200;6.080;2023-09-12T15:31:56;1.20;;;1.10;;
76121;SDS011;70471;53.200;6.080;2023-09-12T15:36:48;1.60;;;1.00;;
76121;SDS011;70471;53.200;6.080;2023-09-12T15:41:41;1.02;;;0.90;;
76121;SDS011;70471;53.200;6.080;2023-09-12T15:46:32;1.13;;;1.02;;
76121;SDS011;70471;53.200;6.080;2023-09-12T15:51:24;1.13;;;1.02;;
76121;SDS011;70471;53.200;6.080;2023-09-12T15:56:16;1.95;;;0.98;;
76121;SDS011;70471;53.200;6.080;2023-09-12T16:01:09;1.48;;;1.08;;
76121;SDS011;70471;53.200;6.080;2023-09-12T16:06:00;1.00;;;0.82;;
76121;SDS011;70471;53.200;6.080;2023-09-12T16:10:52;1.92;;;1.23;;
76121;SDS011;70471;53.200;6.080;2023-09-12T16:15:44;6.50;;;1.13;;
76121;SDS011;70471;53.200;6.080;2023-09-12T16:20:36;1.73;;;1.00;;
76121;SDS011;70471;53.200;6.080;2023-09-12T16:25:28;0.70;;;0.70;;
76121;SDS011;70471;53.200;6.080;2023-09-12T16:30:19;1.05;;;0.90;;
76121;SDS011;70471;53.200;6.080;2023-09-12T16:35:11;1.55;;;0.65;;
76121;SDS011;70471;53.200;6.080;2023-09-12T16:40:04;1.10;;;0.80;;
76121;SDS011;70471;53.200;6.080;2023-09-12T16:44:57;1.17;;;0.80;;
76121;SDS011;70471;53.200;6.080;2023-09-12T16:49:49;0.95;;;0.65;;
76121;SDS011;70471;53.200;6.080;2023-09-12T16:54:41;1.02;;;0.57;;
76121;SDS011;70471;53.200;6.080;2023-09-12T16:59:33;0.80;;;0.40;;
76121;SDS011;70471;53.200;6.080;2023-09-12T17:04:25;0.77;;;0.43;;
76121;SDS011;70471;53.200;6.080;2023-09-12T17:09:16;1.00;;;0.50;;
76121;SDS011;70471;53.200;6.080;2023-09-12T17:14:08;1.88;;;0.52;;
76121;SDS011;70471;53.200;6.080;2023-09-12T17:19:00;0.70;;;0.57;;
76121;SDS011;70471;53.200;6.080;2023-09-12T17:23:52;0.57;;;0.45;;
76121;SDS011;70471;53.200;6.080;2023-09-12T17:28:43;1.13;;;0.40;;
76121;SDS011;70471;53.200;6.080;2023-09-12T17:33:35;1.15;;;0.70;;
76121;SDS011;70471;53.200;6.080;2023-09-12T17:38:28;0.60;;;0.40;;
76121;SDS011;70471;53.200;6.080;2023-09-12T17:43:19;0.68;;;0.30;;
76121;SDS011;70471;53.200;6.080;2023-09-12T17:48:11;0.68;;;0.52;;
76121;SDS011;70471;53.200;6.080;2023-09-12T17:53:02;1.10;;;0.50;;
76121;SDS011;70471;53.200;6.080;2023-09-12T17:57:55;3.03;;;0.47;;
76121;SDS011;70471;53.200;6.080;2023-09-12T18:02:47;1.17;;;1.05;;
76121;SDS011;70471;53.200;6.080;2023-09-12T18:07:39;1.05;;;0.63;;
76121;SDS011;70471;53.200;6.080;2023-09-12T18:12:30;1.33;;;0.57;;
76121;SDS011;70471;53.200;6.080;2023-09-12T18:17:23;0.73;;;0.50;;
76121;SDS011;70471;53.200;6.080;2023-09-12T18:22:15;1.90;;;0.40;;
76121;SDS011;70471;53.200;6.080;2023-09-12T18:27:06;0.50;;;0.50;;
76121;SDS011;70471;53.200;6.080;2023-09-12T18:31:57;1.05;;;0.30;;
76121;SDS011;70471;53.200;6.080;2023-09-12T18:36:51;0.60;;;0.43;;
76121;SDS011;70471;53.200;6.080;2023-09-12T18:41:43;1.42;;;0.50;;
76121;SDS011;70471;53.200;6.080;2023-09-12T18:46:35;1.75;;;0.75;;
76121;SDS011;70471;53.200;6.080;2023-09-12T18:51:26;0.28;;;0.20;;
76121;SDS011;70471;53.200;6.080;2023-09-12T18:56:19;0.80;;;0.40;;
76121;SDS011;70471;53.200;6.080;2023-09-12T19:01:10;0.30;;;0.25;;
76121;SDS011;70471;53.200;6.080;2023-09-12T19:06:02;0.88;;;0.47;;
76121;SDS011;70471;53.200;6.080;2023-09-12T19:10:54;0.60;;;0.30;;
76121;SDS011;70471;53.200;6.080;2023-09-12T19:15:47;0.68;;;0.40;;
76121;SDS011;70471;53.200;6.080;2023-09-12T19:20:39;4.18;;;0.50;;
76121;SDS011;70471;53.200;6.080;2023-09-12T19:25:31;0.90;;;0.50;;
76121;SDS011;70471;53.200;6.080;2023-09-12T19:30:23;0.57;;;0.30;;
76121;SDS011;70471;53.200;6.080;2023-09-12T19:35:17;0.38;;;0.25;;
76121;SDS011;70471;53.200;6.080;2023-09-12T19:40:09;0.70;;;0.30;;
76121;SDS011;70471;53.200;6.080;2023-09-12T19:45:04;0.55;;;0.30;;
76121;SDS011;70471;53.200;6.080;2023-09-12T19:49:56;1.10;;;0.43;;
76121;SDS011;70471;53.200;6.080;2023-09-12T19:54:50;0.70;;;0.30;;
76121;SDS011;70471;53.200;6.080;2023-09-12T19:59:42;0.30;;;0.30;;
76121;SDS011;70471;53.200;6.080;2023-09-12T20:04:33;0.40;;;0.30;;
76121;SDS011;70471;53.200;6.080;2023-09-12T20:09:24;1.50;;;0.43;;
76121;SDS011;70471;53.200;6.080;2023-09-12T20:14:17;0.77;;;0.38;;
76121;SDS011;70471;53.200;6.080;2023-09-12T20:19:09;0.60;;;0.40;;
76121;SDS011;70471;53.200;6.080;2023-09-12T20:24:00;1.23;;;0.40;;
76121;SDS011;70471;53.200;6.080;2023-09-12T20:28:52;0.80;;;0.25;;
76121;SDS011;70471;53.200;6.080;2023-09-12T20:33:46;0.70;;;0.40;;
76121;SDS011;70471;53.200;6.080;2023-09-12T20:38:43;0.55;;;0.35;;
76121;SDS011;70471;53.200;6.080;2023-09-12T20:43:35;4.20;;;0.30;;
76121;SDS011;70471;53.200;6.080;2023-09-12T20:48:27;0.52;;;0.20;;
76121;SDS011;70471;53.200;6.080;2023-09-12T20:53:20;0.60;;;0.30;;
76121;SDS011;70471;53.200;6.080;2023-09-12T20:58:11;0.80;;;0.28;;
76121;SDS011;70471;53.200;6.080;2023-09-12T21:03:03;0.43;;;0.20;;
76121;SDS011;70471;53.200;6.080;2023-09-12T21:07:56;1.02;;;0.50;;
76121;SDS011;70471;53.200;6.080;2023-09-12T21:12:49;0.73;;;0.32;;
76121;SDS011;70471;53.200;6.080;2023-09-12T21:17:40;0.40;;;0.30;;
76121;SDS011;70471;53.200;6.080;2023-09-12T21:22:32;0.65;;;0.20;;
76121;SDS011;70471;53.200;6.080;2023-09-12T21:27:24;1.15;;;0.20;;
76121;SDS011;70471;53.200;6.080;2023-09-12T21:32:17;1.73;;;0.50;;
76121;SDS011;70471;53.200;6.080;2023-09-12T21:37:09;0.20;;;0.20;;
76121;SDS011;70471;53.200;6.080;2023-09-12T21:42:03;0.85;;;0.20;;
76121;SDS011;70471;53.200;6.080;2023-09-12T21:46:55;0.90;;;0.30;;
76121;SDS011;70471;53.200;6.080;2023-09-12T21:51:48;1.02;;;0.28;;
76121;SDS011;70471;53.200;6.080;2023-09-12T21:56:39;0.75;;;0.22;;
76121;SDS011;70471;53.200;6.080;2023-09-12T22:01:31;1.77;;;0.35;;
76121;SDS011;70471;53.200;6.080;2023-09-12T22:06:22;0.32;;;0.30;;
76121;SDS011;70471;53.200;6.080;2023-09-12T22:11:17;1.13;;;0.50;;
76121;SDS011;70471;53.200;6.080;2023-09-12T22:16:09;1.58;;;0.40;;
76121;SDS011;70471;53.200;6.080;2023-09-12T22:21:00;3.35;;;0.80;;
76121;SDS011;70471;53.200;6.080;2023-09-12T22:25:57;1.35;;;0.47;;
76121;SDS011;70471;53.200;6.080;2023-09-12T22:30:50;2.22;;;0.90;;
76121;SDS011;70471;53.200;6.080;2023-09-12T22:35:41;2.13;;;0.60;;
76121;SDS011;70471;53.200;6.080;2023-09-12T22:40:33;2.45;;;0.60;;
76121;SDS011;70471;53.200;6.080;2023-09-12T22:45:24;3.20;;;0.45;;
76121;SDS011;70471;53.200;6.080;2023-09-12T22:50:17;2.88;;;0.80;;
76121;SDS011;70471;53.200;6.080;2023-09-12T22:55:08;2.15;;;0.50;;
76121;SDS011;70471;53.200;6.080;2023-09-12T23:00:00;1.80;;;0.70;;
76121;SDS011;70471;53.200;6.080;2023-09-12T23:04:51;4.63;;;0.90;;
76121;SDS011;70471;53.200;6.080;2023-09-12T23:09:44;3.88;;;0.50;;
76121;SDS011;70471;53.200;6.080;2023-09-12T23:14:35;1.77;;;0.50;;
76121;SDS011;70471;53.200;6.080;2023-09-12T23:19:27;2.35;;;0.73;;
76121;SDS011;70471;53.200;6.080;2023-09-12T23:24:18;2.45;;;0.90;;
76121;SDS011;70471;53.200;6.080;2023-09-12T23:29:11;1.65;;;0.50;;
76121;SDS011;70471;53.200;6.080;2023-09-12T23:34:02;5.10;;;0.70;;
76121;SDS011;70471;53.200;6.080;2023-09-12T23:38:54;3.08;;;0.73;;
76121;SDS011;70471;53.200;6.080;2023-09-12T23:43:46;2.80;;;0.70;;
76121;SDS011;70471;53.200;6.080;2023-09-12T23:48:39;2.75;;;0.63;;
76121;SDS011;70471;53.200;6.080;2023-09-12T23:53:30;1.58;;;0.43;;
76121;SDS011;70471;53.200;6.080;2023-09-12T23:58:22;2.75;;;0.55;;
